Dallas, West Virginia
Current Conditions -  °F | °C
As of 7:53 AM on Friday 31 Oct 2014 (Local Time) from KHLG Reporting Station
Overcast Overcast  
Wind Chill: 42°   Ceiling: 4600
Heat Index: 42°   Visibility: 10mi
Dew Point: 38°   Wind: 0mph
Humidity: 85%   Direction: NA
Pressure: 29.95"   Gusts: NA
Location:  40.02°N, 80.53°W
Report Text: KHLG 311153Z 00000KT 10SM OVC046 06/03 A2995 RMK AO2 SLP152 T00560033 10067 20056 56008
Loading
Personal Weather Stations






























Interactive Weather Map
Tropical Storm Tracking
New forecast layout! Learn more

10-Day Weather Forecast

Advertisements
Track Severe Weather on mobile